sensor_id;sensor_type;location;lat;lon;timestamp;P1;durP1;ratioP1;P2;durP2;ratioP2
6089;SDS011;3073;42.660;23.316;2023-08-06T00:00:54;9.20;;;6.90;;
6089;SDS011;3073;42.660;23.316;2023-08-06T00:03:22;12.60;;;7.40;;
6089;SDS011;3073;42.660;23.316;2023-08-06T00:05:49;11.50;;;5.90;;
6089;SDS011;3073;42.660;23.316;2023-08-06T00:08:17;9.77;;;5.70;;
6089;SDS011;3073;42.660;23.316;2023-08-06T00:10:46;10.70;;;5.40;;
6089;SDS011;3073;42.660;23.316;2023-08-06T00:13:16;1.10;;;0.40;;
6089;SDS011;3073;42.660;23.316;2023-08-06T00:15:43;1.33;;;0.63;;
6089;SDS011;3073;42.660;23.316;2023-08-06T00:18:10;1.10;;;0.40;;
6089;SDS011;3073;42.660;23.316;2023-08-06T00:20:38;1.10;;;0.40;;
6089;SDS011;3073;42.660;23.316;2023-08-06T00:23:05;1.73;;;1.23;;
6089;SDS011;3073;42.660;23.316;2023-08-06T00:25:34;1.40;;;0.87;;
6089;SDS011;3073;42.660;23.316;2023-08-06T00:28:00;1.10;;;0.40;;
6089;SDS011;3073;42.660;23.316;2023-08-06T00:30:27;1.10;;;0.40;;
6089;SDS011;3073;42.660;23.316;2023-08-06T00:32:54;1.10;;;0.40;;
6089;SDS011;3073;42.660;23.316;2023-08-06T00:35:21;1.10;;;0.40;;
6089;SDS011;3073;42.660;23.316;2023-08-06T00:37:48;1.10;;;0.40;;
6089;SDS011;3073;42.660;23.316;2023-08-06T00:40:14;1.10;;;0.40;;
6089;SDS011;3073;42.660;23.316;2023-08-06T00:42:43;1.10;;;0.40;;
6089;SDS011;3073;42.660;23.316;2023-08-06T00:45:11;1.20;;;0.70;;
6089;SDS011;3073;42.660;23.316;2023-08-06T00:47:38;2.43;;;1.23;;
6089;SDS011;3073;42.660;23.316;2023-08-06T00:50:06;1.10;;;0.30;;
6089;SDS011;3073;42.660;23.316;2023-08-06T00:52:33;1.10;;;0.40;;
6089;SDS011;3073;42.660;23.316;2023-08-06T00:55:01;1.10;;;0.50;;
6089;SDS011;3073;42.660;23.316;2023-08-06T00:57:28;1.10;;;0.40;;
6089;SDS011;3073;42.660;23.316;2023-08-06T00:59:57;1.10;;;0.43;;
6089;SDS011;3073;42.660;23.316;2023-08-06T01:02:24;1.20;;;0.60;;
6089;SDS011;3073;42.660;23.316;2023-08-06T01:04:51;1.10;;;0.40;;
6089;SDS011;3073;42.660;23.316;2023-08-06T01:07:20;1.10;;;0.40;;
6089;SDS011;3073;42.660;23.316;2023-08-06T01:09:57;1.10;;;0.33;;
6089;SDS011;3073;42.660;23.316;2023-08-06T01:12:42;1.10;;;0.33;;
6089;SDS011;3073;42.660;23.316;2023-08-06T01:15:23;1.10;;;0.40;;
6089;SDS011;3073;42.660;23.316;2023-08-06T01:17:54;1.10;;;0.40;;
6089;SDS011;3073;42.660;23.316;2023-08-06T01:20:21;1.10;;;0.40;;
6089;SDS011;3073;42.660;23.316;2023-08-06T01:22:49;1.10;;;0.30;;
6089;SDS011;3073;42.660;23.316;2023-08-06T01:25:16;1.10;;;0.40;;
6089;SDS011;3073;42.660;23.316;2023-08-06T01:27:44;1.10;;;0.30;;
6089;SDS011;3073;42.660;23.316;2023-08-06T01:30:15;1.10;;;0.40;;
6089;SDS011;3073;42.660;23.316;2023-08-06T01:32:46;1.10;;;0.40;;
6089;SDS011;3073;42.660;23.316;2023-08-06T01:35:17;1.10;;;0.40;;
6089;SDS011;3073;42.660;23.316;2023-08-06T01:37:45;1.10;;;0.30;;
6089;SDS011;3073;42.660;23.316;2023-08-06T01:40:15;1.10;;;0.40;;
6089;SDS011;3073;42.660;23.316;2023-08-06T01:42:42;7.13;;;3.33;;
6089;SDS011;3073;42.660;23.316;2023-08-06T01:45:09;1.10;;;0.30;;
6089;SDS011;3073;42.660;23.316;2023-08-06T01:47:36;1.10;;;0.30;;
6089;SDS011;3073;42.660;23.316;2023-08-06T01:50:03;1.10;;;0.40;;
6089;SDS011;3073;42.660;23.316;2023-08-06T01:52:30;1.10;;;0.40;;
6089;SDS011;3073;42.660;23.316;2023-08-06T01:54:57;1.10;;;0.30;;
6089;SDS011;3073;42.660;23.316;2023-08-06T01:57:25;1.10;;;0.30;;
6089;SDS011;3073;42.660;23.316;2023-08-06T01:59:52;1.10;;;0.40;;
6089;SDS011;3073;42.660;23.316;2023-08-06T02:02:19;1.10;;;0.40;;
6089;SDS011;3073;42.660;23.316;2023-08-06T02:04:46;32.20;;;5.20;;
6089;SDS011;3073;42.660;23.316;2023-08-06T02:07:13;1.10;;;0.30;;
6089;SDS011;3073;42.660;23.316;2023-08-06T02:09:39;1.10;;;0.40;;
6089;SDS011;3073;42.660;23.316;2023-08-06T02:12:07;1.10;;;0.30;;
6089;SDS011;3073;42.660;23.316;2023-08-06T02:14:35;1.10;;;0.40;;
6089;SDS011;3073;42.660;23.316;2023-08-06T02:17:02;1.10;;;0.40;;
6089;SDS011;3073;42.660;23.316;2023-08-06T02:19:29;1.10;;;0.40;;
6089;SDS011;3073;42.660;23.316;2023-08-06T02:21:56;1.10;;;0.40;;
6089;SDS011;3073;42.660;23.316;2023-08-06T02:24:23;1.10;;;0.40;;
6089;SDS011;3073;42.660;23.316;2023-08-06T02:26:49;1.10;;;0.30;;
6089;SDS011;3073;42.660;23.316;2023-08-06T02:29:20;1.67;;;1.07;;
6089;SDS011;3073;42.660;23.316;2023-08-06T02:31:48;1.10;;;0.40;;
6089;SDS011;3073;42.660;23.316;2023-08-06T02:34:15;1.10;;;0.33;;
6089;SDS011;3073;42.660;23.316;2023-08-06T02:36:42;1.10;;;0.40;;
6089;SDS011;3073;42.660;23.316;2023-08-06T02:39:08;1.10;;;0.30;;
6089;SDS011;3073;42.660;23.316;2023-08-06T02:41:35;1.70;;;1.37;;
6089;SDS011;3073;42.660;23.316;2023-08-06T02:44:02;1.10;;;0.30;;
6089;SDS011;3073;42.660;23.316;2023-08-06T02:46:29;3.50;;;1.17;;
6089;SDS011;3073;42.660;23.316;2023-08-06T02:48:57;1.10;;;0.30;;
6089;SDS011;3073;42.660;23.316;2023-08-06T02:51:24;1.10;;;0.30;;
6089;SDS011;3073;42.660;23.316;2023-08-06T02:53:51;1.27;;;0.70;;
6089;SDS011;3073;42.660;23.316;2023-08-06T02:56:18;1.10;;;0.30;;
6089;SDS011;3073;42.660;23.316;2023-08-06T02:58:45;1.10;;;0.40;;
6089;SDS011;3073;42.660;23.316;2023-08-06T03:01:11;1.10;;;0.30;;
6089;SDS011;3073;42.660;23.316;2023-08-06T03:03:39;1.10;;;0.40;;
6089;SDS011;3073;42.660;23.316;2023-08-06T03:06:07;1.10;;;0.30;;
6089;SDS011;3073;42.660;23.316;2023-08-06T03:08:34;1.10;;;0.30;;
6089;SDS011;3073;42.660;23.316;2023-08-06T03:11:01;1.07;;;0.30;;
6089;SDS011;3073;42.660;23.316;2023-08-06T03:13:27;1.10;;;0.30;;
6089;SDS011;3073;42.660;23.316;2023-08-06T03:15:54;1.10;;;0.30;;
6089;SDS011;3073;42.660;23.316;2023-08-06T03:18:23;1.10;;;0.40;;
6089;SDS011;3073;42.660;23.316;2023-08-06T03:20:51;1.10;;;0.30;;
6089;SDS011;3073;42.660;23.316;2023-08-06T03:23:19;1.10;;;0.30;;
6089;SDS011;3073;42.660;23.316;2023-08-06T03:25:46;1.10;;;0.30;;
6089;SDS011;3073;42.660;23.316;2023-08-06T03:28:13;1.07;;;0.30;;
6089;SDS011;3073;42.660;23.316;2023-08-06T03:30:40;1.10;;;0.40;;
6089;SDS011;3073;42.660;23.316;2023-08-06T03:33:06;1.10;;;0.30;;
6089;SDS011;3073;42.660;23.316;2023-08-06T03:35:33;1.10;;;0.40;;
6089;SDS011;3073;42.660;23.316;2023-08-06T03:38:00;1.03;;;0.40;;
6089;SDS011;3073;42.660;23.316;2023-08-06T03:40:28;1.10;;;0.30;;
6089;SDS011;3073;42.660;23.316;2023-08-06T03:42:55;1.10;;;0.30;;
6089;SDS011;3073;42.660;23.316;2023-08-06T03:45:21;1.10;;;0.40;;
6089;SDS011;3073;42.660;23.316;2023-08-06T03:47:48;1.10;;;0.40;;
6089;SDS011;3073;42.660;23.316;2023-08-06T03:50:15;1.10;;;0.40;;
6089;SDS011;3073;42.660;23.316;2023-08-06T03:52:42;1.10;;;0.40;;
6089;SDS011;3073;42.660;23.316;2023-08-06T03:55:09;1.10;;;0.33;;
6089;SDS011;3073;42.660;23.316;2023-08-06T03:57:37;1.10;;;0.40;;
6089;SDS011;3073;42.660;23.316;2023-08-06T04:00:04;1.10;;;0.30;;
6089;SDS011;3073;42.660;23.316;2023-08-06T04:02:32;1.00;;;0.30;;
6089;SDS011;3073;42.660;23.316;2023-08-06T04:04:59;4.60;;;2.30;;
6089;SDS011;3073;42.660;23.316;2023-08-06T04:07:26;1.10;;;0.30;;
6089;SDS011;3073;42.660;23.316;2023-08-06T04:09:54;1.10;;;0.30;;
6089;SDS011;3073;42.660;23.316;2023-08-06T04:12:23;1.03;;;0.30;;
6089;SDS011;3073;42.660;23.316;2023-08-06T04:14:52;1.10;;;0.40;;
6089;SDS011;3073;42.660;23.316;2023-08-06T04:17:20;1.10;;;0.30;;
6089;SDS011;3073;42.660;23.316;2023-08-06T04:19:48;1.10;;;0.40;;
6089;SDS011;3073;42.660;23.316;2023-08-06T04:22:16;1.10;;;0.40;;
6089;SDS011;3073;42.660;23.316;2023-08-06T04:24:43;1.10;;;0.37;;
6089;SDS011;3073;42.660;23.316;2023-08-06T04:27:11;1.00;;;0.40;;
6089;SDS011;3073;42.660;23.316;2023-08-06T04:29:38;1.10;;;0.40;;
6089;SDS011;3073;42.660;23.316;2023-08-06T04:32:07;1.10;;;0.30;;
6089;SDS011;3073;42.660;23.316;2023-08-06T04:34:35;1.10;;;0.30;;
6089;SDS011;3073;42.660;23.316;2023-08-06T04:37:03;1.10;;;0.30;;
6089;SDS011;3073;42.660;23.316;2023-08-06T04:39:30;2.03;;;1.70;;
6089;SDS011;3073;42.660;23.316;2023-08-06T04:41:58;1.07;;;0.40;;
6089;SDS011;3073;42.660;23.316;2023-08-06T04:44:24;1.10;;;0.40;;
6089;SDS011;3073;42.660;23.316;2023-08-06T04:46:51;1.10;;;0.40;;
6089;SDS011;3073;42.660;23.316;2023-08-06T04:51:48;1.10;;;0.40;;
6089;SDS011;3073;42.660;23.316;2023-08-06T04:54:15;1.07;;;0.40;;
6089;SDS011;3073;42.660;23.316;2023-08-06T04:56:41;1.20;;;0.60;;
6089;SDS011;3073;42.660;23.316;2023-08-06T04:59:08;1.10;;;0.40;;
6089;SDS011;3073;42.660;23.316;2023-08-06T05:01:35;1.10;;;0.40;;
6089;SDS011;3073;42.660;23.316;2023-08-06T05:04:02;1.10;;;0.50;;
6089;SDS011;3073;42.660;23.316;2023-08-06T05:06:30;1.10;;;0.40;;
6089;SDS011;3073;42.660;23.316;2023-08-06T05:08:57;1.10;;;0.37;;
6089;SDS011;3073;42.660;23.316;2023-08-06T05:11:23;1.10;;;0.40;;
6089;SDS011;3073;42.660;23.316;2023-08-06T05:13:50;1.10;;;0.60;;
6089;SDS011;3073;42.660;23.316;2023-08-06T05:16:17;1.03;;;0.30;;
6089;SDS011;3073;42.660;23.316;2023-08-06T05:18:44;1.10;;;0.30;;
6089;SDS011;3073;42.660;23.316;2023-08-06T05:21:11;1.10;;;0.40;;
6089;SDS011;3073;42.660;23.316;2023-08-06T05:23:39;1.10;;;0.40;;
6089;SDS011;3073;42.660;23.316;2023-08-06T05:26:06;1.10;;;0.30;;
6089;SDS011;3073;42.660;23.316;2023-08-06T05:28:32;1.10;;;0.40;;
6089;SDS011;3073;42.660;23.316;2023-08-06T05:31:02;2.13;;;1.80;;
6089;SDS011;3073;42.660;23.316;2023-08-06T05:33:29;1.10;;;0.50;;
6089;SDS011;3073;42.660;23.316;2023-08-06T05:35:56;1.20;;;0.60;;
6089;SDS011;3073;42.660;23.316;2023-08-06T05:38:23;1.10;;;0.40;;
6089;SDS011;3073;42.660;23.316;2023-08-06T05:40:51;1.10;;;0.40;;
6089;SDS011;3073;42.660;23.316;2023-08-06T05:43:18;1.10;;;0.40;;
6089;SDS011;3073;42.660;23.316;2023-08-06T05:45:44;1.30;;;0.97;;
6089;SDS011;3073;42.660;23.316;2023-08-06T05:48:11;2.13;;;1.43;;
6089;SDS011;3073;42.660;23.316;2023-08-06T05:50:38;1.10;;;0.30;;
6089;SDS011;3073;42.660;23.316;2023-08-06T05:53:05;1.10;;;0.37;;
6089;SDS011;3073;42.660;23.316;2023-08-06T05:55:32;1.10;;;0.40;;
6089;SDS011;3073;42.660;23.316;2023-08-06T05:58:00;1.10;;;0.50;;
6089;SDS011;3073;42.660;23.316;2023-08-06T06:00:27;1.20;;;0.50;;
6089;SDS011;3073;42.660;23.316;2023-08-06T06:02:54;1.10;;;0.40;;
6089;SDS011;3073;42.660;23.316;2023-08-06T06:05:21;1.10;;;0.40;;
6089;SDS011;3073;42.660;23.316;2023-08-06T06:07:47;1.10;;;0.40;;
6089;SDS011;3073;42.660;23.316;2023-08-06T06:10:14;1.10;;;0.30;;
6089;SDS011;3073;42.660;23.316;2023-08-06T06:12:41;1.10;;;0.40;;
6089;SDS011;3073;42.660;23.316;2023-08-06T06:15:10;1.10;;;0.40;;
6089;SDS011;3073;42.660;23.316;2023-08-06T06:17:37;1.10;;;0.30;;
6089;SDS011;3073;42.660;23.316;2023-08-06T06:20:05;1.10;;;0.37;;
6089;SDS011;3073;42.660;23.316;2023-08-06T06:22:32;1.10;;;0.40;;
6089;SDS011;3073;42.660;23.316;2023-08-06T06:24:59;1.10;;;0.30;;
6089;SDS011;3073;42.660;23.316;2023-08-06T06:27:26;1.10;;;0.40;;
6089;SDS011;3073;42.660;23.316;2023-08-06T06:29:53;1.10;;;0.40;;
6089;SDS011;3073;42.660;23.316;2023-08-06T06:32:21;1.10;;;0.40;;
6089;SDS011;3073;42.660;23.316;2023-08-06T06:34:48;1.10;;;0.30;;
6089;SDS011;3073;42.660;23.316;2023-08-06T06:37:15;1.10;;;0.40;;
6089;SDS011;3073;42.660;23.316;2023-08-06T06:39:42;1.10;;;0.40;;
6089;SDS011;3073;42.660;23.316;2023-08-06T06:42:09;1.10;;;0.40;;
6089;SDS011;3073;42.660;23.316;2023-08-06T06:44:36;1.10;;;0.40;;
6089;SDS011;3073;42.660;23.316;2023-08-06T06:47:03;8.00;;;4.80;;
6089;SDS011;3073;42.660;23.316;2023-08-06T06:49:32;6.40;;;3.50;;
6089;SDS011;3073;42.660;23.316;2023-08-06T06:51:59;7.97;;;3.50;;
6089;SDS011;3073;42.660;23.316;2023-08-06T06:54:25;7.93;;;5.33;;
6089;SDS011;3073;42.660;23.316;2023-08-06T06:56:52;9.00;;;4.80;;
6089;SDS011;3073;42.660;23.316;2023-08-06T06:59:19;6.07;;;5.43;;
6089;SDS011;3073;42.660;23.316;2023-08-06T07:01:46;9.40;;;5.93;;
6089;SDS011;3073;42.660;23.316;2023-08-06T07:04:13;8.63;;;5.50;;
6089;SDS011;3073;42.660;23.316;2023-08-06T07:06:41;11.77;;;5.97;;
6089;SDS011;3073;42.660;23.316;2023-08-06T07:09:08;10.80;;;6.87;;
6089;SDS011;3073;42.660;23.316;2023-08-06T07:11:35;8.40;;;6.73;;
6089;SDS011;3073;42.660;23.316;2023-08-06T07:14:02;11.13;;;5.90;;
6089;SDS011;3073;42.660;23.316;2023-08-06T07:16:28;9.17;;;5.20;;
6089;SDS011;3073;42.660;23.316;2023-08-06T07:18:55;6.80;;;5.60;;
6089;SDS011;3073;42.660;23.316;2023-08-06T07:21:22;6.17;;;5.23;;
6089;SDS011;3073;42.660;23.316;2023-08-06T07:23:50;6.27;;;5.43;;
6089;SDS011;3073;42.660;23.316;2023-08-06T07:26:19;7.70;;;4.60;;
6089;SDS011;3073;42.660;23.316;2023-08-06T07:28:46;4.87;;;4.20;;
6089;SDS011;3073;42.660;23.316;2023-08-06T07:31:13;7.07;;;4.37;;
6089;SDS011;3073;42.660;23.316;2023-08-06T07:33:40;3.80;;;3.40;;
6089;SDS011;3073;42.660;23.316;2023-08-06T07:36:10;4.70;;;3.70;;
6089;SDS011;3073;42.660;23.316;2023-08-06T07:38:38;6.20;;;3.80;;
6089;SDS011;3073;42.660;23.316;2023-08-06T07:41:06;4.20;;;3.27;;
6089;SDS011;3073;42.660;23.316;2023-08-06T07:43:33;3.87;;;3.57;;
6089;SDS011;3073;42.660;23.316;2023-08-06T07:46:00;6.93;;;3.67;;
6089;SDS011;3073;42.660;23.316;2023-08-06T07:48:27;4.40;;;3.30;;
6089;SDS011;3073;42.660;23.316;2023-08-06T07:50:55;6.47;;;3.87;;
6089;SDS011;3073;42.660;23.316;2023-08-06T07:53:22;6.17;;;4.20;;
6089;SDS011;3073;42.660;23.316;2023-08-06T07:55:52;3.90;;;3.50;;
6089;SDS011;3073;42.660;23.316;2023-08-06T07:58:21;5.47;;;3.40;;
6089;SDS011;3073;42.660;23.316;2023-08-06T08:00:47;9.93;;;4.10;;
6089;SDS011;3073;42.660;23.316;2023-08-06T08:03:14;5.77;;;3.43;;
6089;SDS011;3073;42.660;23.316;2023-08-06T08:05:44;4.90;;;4.10;;
6089;SDS011;3073;42.660;23.316;2023-08-06T08:08:11;4.43;;;3.40;;
6089;SDS011;3073;42.660;23.316;2023-08-06T08:10:38;8.47;;;4.10;;
6089;SDS011;3073;42.660;23.316;2023-08-06T08:13:05;7.20;;;4.20;;
6089;SDS011;3073;42.660;23.316;2023-08-06T08:15:33;4.93;;;3.90;;
6089;SDS011;3073;42.660;23.316;2023-08-06T08:18:00;3.93;;;3.47;;
6089;SDS011;3073;42.660;23.316;2023-08-06T08:20:27;4.20;;;3.40;;
6089;SDS011;3073;42.660;23.316;2023-08-06T08:22:57;3.83;;;2.97;;
6089;SDS011;3073;42.660;23.316;2023-08-06T08:25:25;3.80;;;3.37;;
6089;SDS011;3073;42.660;23.316;2023-08-06T08:27:52;5.17;;;3.43;;
6089;SDS011;3073;42.660;23.316;2023-08-06T08:30:19;4.68;;;3.38;;
6089;SDS011;3073;42.660;23.316;2023-08-06T08:32:48;4.60;;;3.10;;
6089;SDS011;3073;42.660;23.316;2023-08-06T08:35:15;3.83;;;3.10;;
6089;SDS011;3073;42.660;23.316;2023-08-06T08:37:42;6.13;;;3.55;;
6089;SDS011;3073;42.660;23.316;2023-08-06T08:40:09;4.10;;;3.70;;
6089;SDS011;3073;42.660;23.316;2023-08-06T08:42:36;4.38;;;3.60;;
6089;SDS011;3073;42.660;23.316;2023-08-06T08:45:04;6.15;;;4.10;;
6089;SDS011;3073;42.660;23.316;2023-08-06T08:47:33;6.47;;;3.45;;
6089;SDS011;3073;42.660;23.316;2023-08-06T08:50:02;4.50;;;3.33;;
6089;SDS011;3073;42.660;23.316;2023-08-06T08:52:32;3.95;;;3.55;;
6089;SDS011;3073;42.660;23.316;2023-08-06T08:55:00;4.27;;;3.70;;
6089;SDS011;3073;42.660;23.316;2023-08-06T08:57:28;5.38;;;3.40;;
6089;SDS011;3073;42.660;23.316;2023-08-06T08:59:54;5.70;;;3.05;;
6089;SDS011;3073;42.660;23.316;2023-08-06T09:02:21;4.43;;;3.22;;
6089;SDS011;3073;42.660;23.316;2023-08-06T09:04:52;3.85;;;3.45;;
6089;SDS011;3073;42.660;23.316;2023-08-06T09:07:21;3.83;;;3.10;;
6089;SDS011;3073;42.660;23.316;2023-08-06T09:09:50;8.52;;;3.72;;
6089;SDS011;3073;42.660;23.316;2023-08-06T09:12:19;3.80;;;3.33;;
6089;SDS011;3073;42.660;23.316;2023-08-06T09:14:46;4.20;;;3.80;;
6089;SDS011;3073;42.660;23.316;2023-08-06T09:17:13;4.28;;;3.35;;
6089;SDS011;3073;42.660;23.316;2023-08-06T09:19:44;4.95;;;4.00;;
6089;SDS011;3073;42.660;23.316;2023-08-06T09:22:13;5.55;;;3.65;;
6089;SDS011;3073;42.660;23.316;2023-08-06T09:24:42;3.83;;;3.30;;
6089;SDS011;3073;42.660;23.316;2023-08-06T09:27:13;5.88;;;3.97;;
6089;SDS011;3073;42.660;23.316;2023-08-06T09:29:40;4.38;;;3.30;;
6089;SDS011;3073;42.660;23.316;2023-08-06T09:32:09;4.22;;;2.95;;
6089;SDS011;3073;42.660;23.316;2023-08-06T09:34:38;6.43;;;3.55;;
6089;SDS011;3073;42.660;23.316;2023-08-06T09:37:05;4.75;;;3.92;;
6089;SDS011;3073;42.660;23.316;2023-08-06T09:39:35;3.65;;;3.13;;
6089;SDS011;3073;42.660;23.316;2023-08-06T09:42:03;3.83;;;3.15;;
6089;SDS011;3073;42.660;23.316;2023-08-06T09:44:30;4.63;;;2.53;;
6089;SDS011;3073;42.660;23.316;2023-08-06T09:46:59;3.90;;;2.78;;
6089;SDS011;3073;42.660;23.316;2023-08-06T09:49:39;2.88;;;2.30;;
6089;SDS011;3073;42.660;23.316;2023-08-06T09:52:11;3.47;;;2.88;;
6089;SDS011;3073;42.660;23.316;2023-08-06T09:54:38;3.15;;;2.70;;
6089;SDS011;3073;42.660;23.316;2023-08-06T09:57:07;4.95;;;2.67;;
6089;SDS011;3073;42.660;23.316;2023-08-06T09:59:35;6.65;;;2.60;;
6089;SDS011;3073;42.660;23.316;2023-08-06T10:02:05;3.65;;;2.90;;
6089;SDS011;3073;42.660;23.316;2023-08-06T10:04:38;5.47;;;4.35;;
6089;SDS011;3073;42.660;23.316;2023-08-06T10:07:05;3.20;;;2.35;;
6089;SDS011;3073;42.660;23.316;2023-08-06T10:09:32;3.95;;;3.00;;
6089;SDS011;3073;42.660;23.316;2023-08-06T10:11:59;4.05;;;3.65;;
6089;SDS011;3073;42.660;23.316;2023-08-06T10:14:28;4.55;;;2.92;;
6089;SDS011;3073;42.660;23.316;2023-08-06T10:16:59;3.75;;;2.55;;
6089;SDS011;3073;42.660;23.316;2023-08-06T10:19:27;5.95;;;2.75;;
6089;SDS011;3073;42.660;23.316;2023-08-06T10:22:08;4.40;;;2.30;;
6089;SDS011;3073;42.660;23.316;2023-08-06T10:24:46;3.45;;;2.85;;
6089;SDS011;3073;42.660;23.316;2023-08-06T10:27:13;4.30;;;2.42;;
6089;SDS011;3073;42.660;23.316;2023-08-06T10:29:46;3.05;;;2.50;;
6089;SDS011;3073;42.660;23.316;2023-08-06T10:32:13;4.90;;;3.00;;
6089;SDS011;3073;42.660;23.316;2023-08-06T10:34:53;2.42;;;2.03;;
6089;SDS011;3073;42.660;23.316;2023-08-06T10:37:21;3.33;;;2.80;;
6089;SDS011;3073;42.660;23.316;2023-08-06T10:39:49;3.33;;;2.65;;
6089;SDS011;3073;42.660;23.316;2023-08-06T10:42:20;7.07;;;3.00;;
6089;SDS011;3073;42.660;23.316;2023-08-06T10:47:45;3.90;;;2.33;;
6089;SDS011;3073;42.660;23.316;2023-08-06T10:50:13;8.88;;;4.63;;
6089;SDS011;3073;42.660;23.316;2023-08-06T10:52:42;9.25;;;3.35;;
6089;SDS011;3073;42.660;23.316;2023-08-06T10:55:09;6.28;;;4.32;;
6089;SDS011;3073;42.660;23.316;2023-08-06T10:57:36;7.72;;;4.68;;
6089;SDS011;3073;42.660;23.316;2023-08-06T11:00:04;7.40;;;3.73;;
6089;SDS011;3073;42.660;23.316;2023-08-06T11:02:34;4.90;;;3.50;;
6089;SDS011;3073;42.660;23.316;2023-08-06T11:05:06;4.20;;;3.07;;
6089;SDS011;3073;42.660;23.316;2023-08-06T11:07:33;5.23;;;3.73;;
6089;SDS011;3073;42.660;23.316;2023-08-06T11:10:01;7.23;;;3.80;;
6089;SDS011;3073;42.660;23.316;2023-08-06T11:12:30;5.47;;;3.13;;
6089;SDS011;3073;42.660;23.316;2023-08-06T11:14:57;4.07;;;3.00;;
6089;SDS011;3073;42.660;23.316;2023-08-06T11:17:24;5.97;;;4.03;;
6089;SDS011;3073;42.660;23.316;2023-08-06T11:19:52;5.73;;;3.70;;
6089;SDS011;3073;42.660;23.316;2023-08-06T11:22:20;4.40;;;3.40;;
6089;SDS011;3073;42.660;23.316;2023-08-06T11:24:47;6.67;;;3.40;;
6089;SDS011;3073;42.660;23.316;2023-08-06T11:27:14;7.80;;;4.20;;
6089;SDS011;3073;42.660;23.316;2023-08-06T11:29:42;11.90;;;5.10;;
6089;SDS011;3073;42.660;23.316;2023-08-06T11:32:10;7.77;;;5.10;;
6089;SDS011;3073;42.660;23.316;2023-08-06T11:34:38;13.13;;;5.63;;
6089;SDS011;3073;42.660;23.316;2023-08-06T11:37:07;7.27;;;4.63;;
6089;SDS011;3073;42.660;23.316;2023-08-06T11:39:34;10.67;;;5.87;;
6089;SDS011;3073;42.660;23.316;2023-08-06T11:42:02;7.93;;;5.30;;
6089;SDS011;3073;42.660;23.316;2023-08-06T11:44:30;9.17;;;5.80;;
6089;SDS011;3073;42.660;23.316;2023-08-06T11:46:58;11.47;;;5.73;;
6089;SDS011;3073;42.660;23.316;2023-08-06T11:49:40;8.87;;;6.03;;
6089;SDS011;3073;42.660;23.316;2023-08-06T11:52:20;9.27;;;5.80;;
6089;SDS011;3073;42.660;23.316;2023-08-06T11:54:59;8.20;;;6.00;;
6089;SDS011;3073;42.660;23.316;2023-08-06T11:57:29;7.40;;;6.00;;
6089;SDS011;3073;42.660;23.316;2023-08-06T11:59:58;7.87;;;5.40;;
6089;SDS011;3073;42.660;23.316;2023-08-06T12:02:28;8.07;;;4.10;;
6089;SDS011;3073;42.660;23.316;2023-08-06T12:05:00;5.10;;;4.20;;
6089;SDS011;3073;42.660;23.316;2023-08-06T12:07:30;5.30;;;4.53;;
6089;SDS011;3073;42.660;23.316;2023-08-06T12:09:58;7.60;;;4.15;;
6089;SDS011;3073;42.660;23.316;2023-08-06T12:12:25;4.82;;;4.32;;
6089;SDS011;3073;42.660;23.316;2023-08-06T12:14:52;5.70;;;3.78;;
6089;SDS011;3073;42.660;23.316;2023-08-06T12:17:20;5.75;;;4.32;;
6089;SDS011;3073;42.660;23.316;2023-08-06T12:19:47;6.03;;;4.75;;
6089;SDS011;3073;42.660;23.316;2023-08-06T12:22:14;8.10;;;5.35;;
6089;SDS011;3073;42.660;23.316;2023-08-06T12:24:43;7.90;;;5.18;;
6089;SDS011;3073;42.660;23.316;2023-08-06T12:27:10;7.35;;;4.80;;
6089;SDS011;3073;42.660;23.316;2023-08-06T12:29:40;8.20;;;5.10;;
6089;SDS011;3073;42.660;23.316;2023-08-06T12:32:08;6.80;;;5.30;;
6089;SDS011;3073;42.660;23.316;2023-08-06T12:34:37;6.35;;;5.45;;
6089;SDS011;3073;42.660;23.316;2023-08-06T12:37:04;6.88;;;5.85;;
6089;SDS011;3073;42.660;23.316;2023-08-06T12:39:31;5.60;;;4.80;;
6089;SDS011;3073;42.660;23.316;2023-08-06T12:41:59;6.47;;;5.65;;
6089;SDS011;3073;42.660;23.316;2023-08-06T12:44:26;6.20;;;5.60;;
6089;SDS011;3073;42.660;23.316;2023-08-06T12:46:53;7.63;;;5.68;;
6089;SDS011;3073;42.660;23.316;2023-08-06T12:49:20;7.72;;;5.80;;
6089;SDS011;3073;42.660;23.316;2023-08-06T12:51:48;5.85;;;5.22;;
6089;SDS011;3073;42.660;23.316;2023-08-06T12:54:16;9.93;;;5.90;;
6089;SDS011;3073;42.660;23.316;2023-08-06T12:56:42;5.93;;;5.05;;
6089;SDS011;3073;42.660;23.316;2023-08-06T12:59:11;6.05;;;5.45;;
6089;SDS011;3073;42.660;23.316;2023-08-06T13:01:38;9.68;;;5.03;;
6089;SDS011;3073;42.660;23.316;2023-08-06T13:04:05;6.13;;;5.53;;
6089;SDS011;3073;42.660;23.316;2023-08-06T13:06:32;9.07;;;6.10;;
6089;SDS011;3073;42.660;23.316;2023-08-06T13:09:01;7.78;;;6.10;;
6089;SDS011;3073;42.660;23.316;2023-08-06T13:11:29;7.72;;;6.10;;
6089;SDS011;3073;42.660;23.316;2023-08-06T13:13:58;5.93;;;4.97;;
6089;SDS011;3073;42.660;23.316;2023-08-06T13:16:31;6.05;;;5.22;;
6089;SDS011;3073;42.660;23.316;2023-08-06T13:18:58;7.75;;;5.65;;
6089;SDS011;3073;42.660;23.316;2023-08-06T13:21:32;7.00;;;4.82;;
6089;SDS011;3073;42.660;23.316;2023-08-06T13:24:00;6.80;;;5.25;;
6089;SDS011;3073;42.660;23.316;2023-08-06T13:26:28;8.70;;;5.95;;
6089;SDS011;3073;42.660;23.316;2023-08-06T13:28:56;6.30;;;5.13;;
6089;SDS011;3073;42.660;23.316;2023-08-06T13:31:23;8.20;;;5.20;;
6089;SDS011;3073;42.660;23.316;2023-08-06T13:33:51;8.25;;;5.55;;
6089;SDS011;3073;42.660;23.316;2023-08-06T13:36:20;5.75;;;5.10;;
6089;SDS011;3073;42.660;23.316;2023-08-06T13:38:47;10.90;;;5.10;;
6089;SDS011;3073;42.660;23.316;2023-08-06T13:41:14;7.80;;;5.70;;
6089;SDS011;3073;42.660;23.316;2023-08-06T13:43:42;9.75;;;5.47;;
6089;SDS011;3073;42.660;23.316;2023-08-06T13:46:09;7.68;;;5.78;;
6089;SDS011;3073;42.660;23.316;2023-08-06T13:48:40;7.70;;;4.97;;
6089;SDS011;3073;42.660;23.316;2023-08-06T13:51:09;7.03;;;5.43;;
6089;SDS011;3073;42.660;23.316;2023-08-06T13:53:36;9.77;;;5.15;;
6089;SDS011;3073;42.660;23.316;2023-08-06T13:56:03;6.90;;;4.88;;
6089;SDS011;3073;42.660;23.316;2023-08-06T13:58:31;6.65;;;4.20;;
6089;SDS011;3073;42.660;23.316;2023-08-06T14:00:58;5.55;;;4.80;;
6089;SDS011;3073;42.660;23.316;2023-08-06T14:03:25;5.57;;;4.30;;
6089;SDS011;3073;42.660;23.316;2023-08-06T14:05:52;5.30;;;4.35;;
6089;SDS011;3073;42.660;23.316;2023-08-06T14:08:21;6.00;;;4.65;;
6089;SDS011;3073;42.660;23.316;2023-08-06T14:10:48;6.28;;;4.65;;
6089;SDS011;3073;42.660;23.316;2023-08-06T14:13:15;6.10;;;4.55;;
6089;SDS011;3073;42.660;23.316;2023-08-06T14:15:43;4.88;;;4.05;;
6089;SDS011;3073;42.660;23.316;2023-08-06T14:18:12;6.22;;;5.40;;
6089;SDS011;3073;42.660;23.316;2023-08-06T14:20:38;5.85;;;4.82;;
6089;SDS011;3073;42.660;23.316;2023-08-06T14:23:05;4.57;;;4.18;;
6089;SDS011;3073;42.660;23.316;2023-08-06T14:25:33;5.50;;;4.03;;
6089;SDS011;3073;42.660;23.316;2023-08-06T14:28:00;7.88;;;4.68;;
6089;SDS011;3073;42.660;23.316;2023-08-06T14:30:27;6.10;;;4.38;;
6089;SDS011;3073;42.660;23.316;2023-08-06T14:32:54;5.40;;;4.20;;
6089;SDS011;3073;42.660;23.316;2023-08-06T14:35:21;6.20;;;4.90;;
6089;SDS011;3073;42.660;23.316;2023-08-06T14:37:47;5.90;;;4.07;;
6089;SDS011;3073;42.660;23.316;2023-08-06T14:40:14;6.60;;;4.63;;
6089;SDS011;3073;42.660;23.316;2023-08-06T14:42:43;4.40;;;4.00;;
6089;SDS011;3073;42.660;23.316;2023-08-06T14:45:10;7.00;;;3.60;;
6089;SDS011;3073;42.660;23.316;2023-08-06T14:47:36;3.97;;;3.40;;
6089;SDS011;3073;42.660;23.316;2023-08-06T14:50:03;4.00;;;3.22;;
6089;SDS011;3073;42.660;23.316;2023-08-06T14:52:31;5.18;;;3.60;;
6089;SDS011;3073;42.660;23.316;2023-08-06T14:54:59;3.95;;;3.53;;
6089;SDS011;3073;42.660;23.316;2023-08-06T14:57:28;5.75;;;2.80;;
6089;SDS011;3073;42.660;23.316;2023-08-06T14:59:57;5.32;;;3.08;;
6089;SDS011;3073;42.660;23.316;2023-08-06T15:02:23;5.38;;;2.75;;
6089;SDS011;3073;42.660;23.316;2023-08-06T15:04:51;4.43;;;3.08;;
6089;SDS011;3073;42.660;23.316;2023-08-06T15:07:18;4.20;;;3.60;;
6089;SDS011;3073;42.660;23.316;2023-08-06T15:09:45;10.82;;;3.92;;